sensor_id;sensor_type;location;lat;lon;timestamp;P1;durP1;ratioP1;P2;durP2;ratioP2
10009;SDS011;5044;48.652;9.250;2023-02-01T00:01:23;4.45;;;1.48;;
10009;SDS011;5044;48.652;9.250;2023-02-01T00:03:50;4.28;;;2.00;;
10009;SDS011;5044;48.652;9.250;2023-02-01T00:06:17;4.30;;;1.92;;
10009;SDS011;5044;48.652;9.250;2023-02-01T00:08:44;3.60;;;1.85;;
10009;SDS011;5044;48.652;9.250;2023-02-01T00:11:15;2.97;;;1.67;;
10009;SDS011;5044;48.652;9.250;2023-02-01T00:13:45;6.38;;;1.65;;
10009;SDS011;5044;48.652;9.250;2023-02-01T00:16:25;4.93;;;1.73;;
10009;SDS011;5044;48.652;9.250;2023-02-01T00:18:57;3.25;;;2.17;;
10009;SDS011;5044;48.652;9.250;2023-02-01T00:21:28;2.83;;;1.80;;
10009;SDS011;5044;48.652;9.250;2023-02-01T00:23:56;4.10;;;1.73;;
10009;SDS011;5044;48.652;9.250;2023-02-01T00:26:25;2.63;;;1.70;;
10009;SDS011;5044;48.652;9.250;2023-02-01T00:28:57;1.17;;;0.93;;
10009;SDS011;5044;48.652;9.250;2023-02-01T00:34:10;2.35;;;1.30;;
10009;SDS011;5044;48.652;9.250;2023-02-01T00:36:39;3.78;;;1.90;;
10009;SDS011;5044;48.652;9.250;2023-02-01T00:39:07;2.75;;;1.50;;
10009;SDS011;5044;48.652;9.250;2023-02-01T00:41:42;2.88;;;1.45;;
10009;SDS011;5044;48.652;9.250;2023-02-01T00:44:11;1.55;;;0.90;;
10009;SDS011;5044;48.652;9.250;2023-02-01T00:46:39;1.83;;;1.30;;
10009;SDS011;5044;48.652;9.250;2023-02-01T00:49:10;2.13;;;1.30;;
10009;SDS011;5044;48.652;9.250;2023-02-01T00:51:37;3.13;;;1.65;;
10009;SDS011;5044;48.652;9.250;2023-02-01T00:54:04;2.20;;;1.38;;
10009;SDS011;5044;48.652;9.250;2023-02-01T00:56:31;2.40;;;1.20;;
10009;SDS011;5044;48.652;9.250;2023-02-01T00:59:03;2.05;;;1.10;;
10009;SDS011;5044;48.652;9.250;2023-02-01T01:01:31;3.58;;;1.15;;
10009;SDS011;5044;48.652;9.250;2023-02-01T01:04:02;2.22;;;1.30;;
10009;SDS011;5044;48.652;9.250;2023-02-01T01:06:32;2.60;;;1.00;;
10009;SDS011;5044;48.652;9.250;2023-02-01T01:09:03;1.20;;;0.87;;
10009;SDS011;5044;48.652;9.250;2023-02-01T01:11:32;3.67;;;1.15;;
10009;SDS011;5044;48.652;9.250;2023-02-01T01:14:08;2.60;;;1.65;;
10009;SDS011;5044;48.652;9.250;2023-02-01T01:16:38;1.55;;;1.05;;
10009;SDS011;5044;48.652;9.250;2023-02-01T01:19:10;2.10;;;1.30;;
10009;SDS011;5044;48.652;9.250;2023-02-01T01:21:42;3.13;;;1.23;;
10009;SDS011;5044;48.652;9.250;2023-02-01T01:24:13;2.08;;;1.27;;
10009;SDS011;5044;48.652;9.250;2023-02-01T01:26:51;11.10;;;1.70;;
10009;SDS011;5044;48.652;9.250;2023-02-01T01:29:34;3.38;;;1.48;;
10009;SDS011;5044;48.652;9.250;2023-02-01T01:32:01;2.67;;;1.58;;
10009;SDS011;5044;48.652;9.250;2023-02-01T01:34:31;2.42;;;1.27;;
10009;SDS011;5044;48.652;9.250;2023-02-01T01:36:59;4.40;;;1.80;;
10009;SDS011;5044;48.652;9.250;2023-02-01T01:39:26;2.25;;;1.50;;
10009;SDS011;5044;48.652;9.250;2023-02-01T01:42:09;1.98;;;1.45;;
10009;SDS011;5044;48.652;9.250;2023-02-01T01:44:57;1.52;;;1.20;;
10009;SDS011;5044;48.652;9.250;2023-02-01T01:47:30;2.30;;;1.48;;
10009;SDS011;5044;48.652;9.250;2023-02-01T01:56:14;1.77;;;1.30;;
10009;SDS011;5044;48.652;9.250;2023-02-01T01:58:41;2.13;;;1.33;;
10009;SDS011;5044;48.652;9.250;2023-02-01T02:01:09;1.65;;;1.10;;
10009;SDS011;5044;48.652;9.250;2023-02-01T02:03:37;4.00;;;1.08;;
10009;SDS011;5044;48.652;9.250;2023-02-01T02:06:15;1.98;;;1.00;;
10009;SDS011;5044;48.652;9.250;2023-02-01T02:08:53;1.98;;;0.77;;
10009;SDS011;5044;48.652;9.250;2023-02-01T02:11:22;3.20;;;1.52;;
10009;SDS011;5044;48.652;9.250;2023-02-01T02:13:50;2.55;;;1.13;;
10009;SDS011;5044;48.652;9.250;2023-02-01T02:19:32;1.70;;;0.95;;
10009;SDS011;5044;48.652;9.250;2023-02-01T02:22:29;1.50;;;1.08;;
10009;SDS011;5044;48.652;9.250;2023-02-01T02:25:20;1.60;;;1.00;;
10009;SDS011;5044;48.652;9.250;2023-02-01T02:27:56;1.50;;;1.00;;
10009;SDS011;5044;48.652;9.250;2023-02-01T02:36:37;1.85;;;1.00;;
10009;SDS011;5044;48.652;9.250;2023-02-01T02:39:13;1.23;;;0.77;;
10009;SDS011;5044;48.652;9.250;2023-02-01T02:41:48;1.50;;;1.02;;
10009;SDS011;5044;48.652;9.250;2023-02-01T02:44:44;1.63;;;0.90;;
10009;SDS011;5044;48.652;9.250;2023-02-01T02:47:32;2.40;;;1.30;;
10009;SDS011;5044;48.652;9.250;2023-02-01T02:50:11;1.27;;;0.90;;
10009;SDS011;5044;48.652;9.250;2023-02-01T02:53:03;2.00;;;0.82;;
10009;SDS011;5044;48.652;9.250;2023-02-01T02:55:52;1.90;;;1.10;;
10009;SDS011;5044;48.652;9.250;2023-02-01T02:58:38;1.60;;;1.05;;
10009;SDS011;5044;48.652;9.250;2023-02-01T03:01:22;1.98;;;1.52;;
10009;SDS011;5044;48.652;9.250;2023-02-01T03:04:06;3.70;;;1.38;;
10009;SDS011;5044;48.652;9.250;2023-02-01T03:06:37;2.35;;;1.30;;
10009;SDS011;5044;48.652;9.250;2023-02-01T03:09:13;1.73;;;1.48;;
10009;SDS011;5044;48.652;9.250;2023-02-01T03:11:44;1.75;;;1.13;;
10009;SDS011;5044;48.652;9.250;2023-02-01T03:14:32;1.27;;;0.90;;
10009;SDS011;5044;48.652;9.250;2023-02-01T03:17:07;3.92;;;1.63;;
10009;SDS011;5044;48.652;9.250;2023-02-01T03:19:39;1.95;;;1.45;;
10009;SDS011;5044;48.652;9.250;2023-02-01T03:22:17;1.73;;;1.27;;
10009;SDS011;5044;48.652;9.250;2023-02-01T03:24:51;2.30;;;1.00;;
10009;SDS011;5044;48.652;9.250;2023-02-01T03:27:24;2.20;;;1.20;;
10009;SDS011;5044;48.652;9.250;2023-02-01T03:29:57;0.93;;;0.60;;
10009;SDS011;5044;48.652;9.250;2023-02-01T03:32:30;1.77;;;1.23;;
10009;SDS011;5044;48.652;9.250;2023-02-01T03:35:11;2.13;;;0.90;;
10009;SDS011;5044;48.652;9.250;2023-02-01T03:37:40;3.10;;;1.38;;
10009;SDS011;5044;48.652;9.250;2023-02-01T03:40:08;2.28;;;1.25;;
10009;SDS011;5044;48.652;9.250;2023-02-01T03:42:40;1.38;;;1.08;;
10009;SDS011;5044;48.652;9.250;2023-02-01T03:45:11;1.88;;;1.10;;
10009;SDS011;5044;48.652;9.250;2023-02-01T03:47:43;2.53;;;1.40;;
10009;SDS011;5044;48.652;9.250;2023-02-01T03:50:16;1.10;;;0.88;;
10009;SDS011;5044;48.652;9.250;2023-02-01T03:52:47;2.92;;;1.20;;
10009;SDS011;5044;48.652;9.250;2023-02-01T03:55:20;1.48;;;0.80;;
10009;SDS011;5044;48.652;9.250;2023-02-01T03:57:50;1.35;;;0.98;;
10009;SDS011;5044;48.652;9.250;2023-02-01T04:00:21;1.60;;;1.13;;
10009;SDS011;5044;48.652;9.250;2023-02-01T04:03:04;1.13;;;0.70;;
10009;SDS011;5044;48.652;9.250;2023-02-01T04:05:32;1.02;;;0.68;;
10009;SDS011;5044;48.652;9.250;2023-02-01T04:08:04;0.93;;;0.65;;
10009;SDS011;5044;48.652;9.250;2023-02-01T04:10:32;2.88;;;0.90;;
10009;SDS011;5044;48.652;9.250;2023-02-01T04:12:59;2.53;;;1.33;;
10009;SDS011;5044;48.652;9.250;2023-02-01T04:15:26;2.17;;;1.05;;
10009;SDS011;5044;48.652;9.250;2023-02-01T04:17:59;2.17;;;1.30;;
10009;SDS011;5044;48.652;9.250;2023-02-01T04:20:26;2.15;;;1.35;;
10009;SDS011;5044;48.652;9.250;2023-02-01T04:22:53;1.30;;;0.75;;
10009;SDS011;5044;48.652;9.250;2023-02-01T04:25:22;0.93;;;0.52;;
10009;SDS011;5044;48.652;9.250;2023-02-01T04:27:49;1.25;;;1.00;;
10009;SDS011;5044;48.652;9.250;2023-02-01T04:30:16;0.90;;;0.80;;
10009;SDS011;5044;48.652;9.250;2023-02-01T04:32:43;1.30;;;1.20;;
10009;SDS011;5044;48.652;9.250;2023-02-01T04:35:10;2.42;;;1.45;;
10009;SDS011;5044;48.652;9.250;2023-02-01T04:37:42;2.17;;;0.80;;
10009;SDS011;5044;48.652;9.250;2023-02-01T04:40:10;1.52;;;0.82;;
10009;SDS011;5044;48.652;9.250;2023-02-01T04:42:43;1.35;;;0.88;;
10009;SDS011;5044;48.652;9.250;2023-02-01T04:45:10;2.45;;;1.40;;
10009;SDS011;5044;48.652;9.250;2023-02-01T04:47:43;1.60;;;1.02;;
10009;SDS011;5044;48.652;9.250;2023-02-01T04:50:10;1.42;;;0.88;;
10009;SDS011;5044;48.652;9.250;2023-02-01T04:52:38;1.95;;;1.30;;
10009;SDS011;5044;48.652;9.250;2023-02-01T04:55:05;2.05;;;1.25;;
10009;SDS011;5044;48.652;9.250;2023-02-01T04:57:33;2.05;;;1.23;;
10009;SDS011;5044;48.652;9.250;2023-02-01T05:00:03;1.92;;;1.00;;
10009;SDS011;5044;48.652;9.250;2023-02-01T05:02:36;2.47;;;1.05;;
10009;SDS011;5044;48.652;9.250;2023-02-01T05:05:04;3.00;;;1.30;;
10009;SDS011;5044;48.652;9.250;2023-02-01T05:07:36;1.98;;;1.00;;
10009;SDS011;5044;48.652;9.250;2023-02-01T05:10:03;1.58;;;0.95;;
10009;SDS011;5044;48.652;9.250;2023-02-01T05:12:32;2.72;;;1.02;;
10009;SDS011;5044;48.652;9.250;2023-02-01T05:15:25;1.98;;;1.30;;
10009;SDS011;5044;48.652;9.250;2023-02-01T05:17:54;3.53;;;0.93;;
10009;SDS011;5044;48.652;9.250;2023-02-01T05:20:21;2.45;;;1.27;;
10009;SDS011;5044;48.652;9.250;2023-02-01T05:22:49;1.15;;;0.73;;
10009;SDS011;5044;48.652;9.250;2023-02-01T05:25:16;1.67;;;1.00;;
10009;SDS011;5044;48.652;9.250;2023-02-01T05:27:44;1.67;;;1.05;;
10009;SDS011;5044;48.652;9.250;2023-02-01T05:30:11;3.55;;;1.42;;
10009;SDS011;5044;48.652;9.250;2023-02-01T05:32:41;2.38;;;1.38;;
10009;SDS011;5044;48.652;9.250;2023-02-01T05:35:09;3.33;;;1.20;;
10009;SDS011;5044;48.652;9.250;2023-02-01T05:37:36;2.03;;;0.98;;
10009;SDS011;5044;48.652;9.250;2023-02-01T05:40:09;1.80;;;1.17;;
10009;SDS011;5044;48.652;9.250;2023-02-01T05:42:38;1.75;;;1.08;;
10009;SDS011;5044;48.652;9.250;2023-02-01T05:45:05;1.52;;;0.82;;
10009;SDS011;5044;48.652;9.250;2023-02-01T05:47:33;1.20;;;1.00;;
10009;SDS011;5044;48.652;9.250;2023-02-01T05:50:04;2.00;;;0.98;;
10009;SDS011;5044;48.652;9.250;2023-02-01T05:52:34;1.83;;;1.05;;
10009;SDS011;5044;48.652;9.250;2023-02-01T05:55:00;2.42;;;1.15;;
10009;SDS011;5044;48.652;9.250;2023-02-01T05:57:27;3.35;;;0.85;;
10009;SDS011;5044;48.652;9.250;2023-02-01T05:59:58;1.42;;;0.88;;
10009;SDS011;5044;48.652;9.250;2023-02-01T06:02:25;1.30;;;0.90;;
10009;SDS011;5044;48.652;9.250;2023-02-01T06:04:52;2.10;;;1.33;;
10009;SDS011;5044;48.652;9.250;2023-02-01T06:07:25;3.33;;;1.23;;
10009;SDS011;5044;48.652;9.250;2023-02-01T06:10:12;3.22;;;0.88;;
10009;SDS011;5044;48.652;9.250;2023-02-01T06:12:39;2.08;;;1.10;;
10009;SDS011;5044;48.652;9.250;2023-02-01T06:15:06;1.10;;;0.98;;
10009;SDS011;5044;48.652;9.250;2023-02-01T06:17:34;1.88;;;1.02;;
10009;SDS011;5044;48.652;9.250;2023-02-01T06:20:01;1.92;;;1.40;;
10009;SDS011;5044;48.652;9.250;2023-02-01T06:22:30;1.80;;;1.15;;
10009;SDS011;5044;48.652;9.250;2023-02-01T06:25:00;4.38;;;0.90;;
10009;SDS011;5044;48.652;9.250;2023-02-01T06:27:28;2.83;;;1.48;;
10009;SDS011;5044;48.652;9.250;2023-02-01T06:29:55;1.67;;;1.00;;
10009;SDS011;5044;48.652;9.250;2023-02-01T06:32:22;2.13;;;0.93;;
10009;SDS011;5044;48.652;9.250;2023-02-01T06:34:50;3.00;;;1.27;;
10009;SDS011;5044;48.652;9.250;2023-02-01T06:37:18;1.55;;;1.00;;
10009;SDS011;5044;48.652;9.250;2023-02-01T06:39:46;1.80;;;0.90;;
10009;SDS011;5044;48.652;9.250;2023-02-01T06:42:13;3.63;;;2.60;;
10009;SDS011;5044;48.652;9.250;2023-02-01T06:44:42;1.65;;;0.85;;
10009;SDS011;5044;48.652;9.250;2023-02-01T06:47:09;1.75;;;1.05;;
10009;SDS011;5044;48.652;9.250;2023-02-01T06:49:39;2.67;;;1.08;;
10009;SDS011;5044;48.652;9.250;2023-02-01T06:52:10;3.35;;;2.20;;
10009;SDS011;5044;48.652;9.250;2023-02-01T06:54:39;2.35;;;0.90;;
10009;SDS011;5044;48.652;9.250;2023-02-01T06:57:09;0.95;;;0.77;;
10009;SDS011;5044;48.652;9.250;2023-02-01T06:59:36;1.17;;;0.77;;
10009;SDS011;5044;48.652;9.250;2023-02-01T07:02:04;1.13;;;1.02;;
10009;SDS011;5044;48.652;9.250;2023-02-01T07:04:31;2.15;;;1.33;;
10009;SDS011;5044;48.652;9.250;2023-02-01T07:06:59;2.75;;;1.00;;
10009;SDS011;5044;48.652;9.250;2023-02-01T07:09:30;3.10;;;1.10;;
10009;SDS011;5044;48.652;9.250;2023-02-01T07:12:01;1.60;;;1.00;;
10009;SDS011;5044;48.652;9.250;2023-02-01T07:14:31;2.50;;;2.00;;
10009;SDS011;5044;48.652;9.250;2023-02-01T07:16:58;1.45;;;0.98;;
10009;SDS011;5044;48.652;9.250;2023-02-01T07:19:27;2.15;;;0.93;;
10009;SDS011;5044;48.652;9.250;2023-02-01T07:21:55;3.55;;;1.02;;
10009;SDS011;5044;48.652;9.250;2023-02-01T07:24:22;1.63;;;0.98;;
10009;SDS011;5044;48.652;9.250;2023-02-01T07:26:48;1.63;;;0.77;;
10009;SDS011;5044;48.652;9.250;2023-02-01T07:29:16;2.95;;;0.93;;
10009;SDS011;5044;48.652;9.250;2023-02-01T07:31:49;5.32;;;0.90;;
10009;SDS011;5044;48.652;9.250;2023-02-01T07:34:17;1.80;;;0.90;;
10009;SDS011;5044;48.652;9.250;2023-02-01T07:36:44;3.90;;;1.00;;
10009;SDS011;5044;48.652;9.250;2023-02-01T07:39:11;3.78;;;0.93;;
10009;SDS011;5044;48.652;9.250;2023-02-01T07:41:38;2.10;;;0.77;;
10009;SDS011;5044;48.652;9.250;2023-02-01T07:44:05;1.15;;;0.70;;
10009;SDS011;5044;48.652;9.250;2023-02-01T07:46:33;0.98;;;0.60;;
10009;SDS011;5044;48.652;9.250;2023-02-01T07:49:14;2.83;;;0.75;;
10009;SDS011;5044;48.652;9.250;2023-02-01T07:51:55;2.13;;;0.90;;
10009;SDS011;5044;48.652;9.250;2023-02-01T07:54:23;1.67;;;1.10;;
10009;SDS011;5044;48.652;9.250;2023-02-01T07:56:51;3.42;;;0.93;;
10009;SDS011;5044;48.652;9.250;2023-02-01T07:59:21;1.30;;;0.93;;
10009;SDS011;5044;48.652;9.250;2023-02-01T08:01:50;2.22;;;1.00;;
10009;SDS011;5044;48.652;9.250;2023-02-01T08:18:22;1.90;;;1.27;;
10009;SDS011;5044;48.652;9.250;2023-02-01T08:21:20;2.45;;;0.90;;
10009;SDS011;5044;48.652;9.250;2023-02-01T08:27:54;3.92;;;2.28;;
10009;SDS011;5044;48.652;9.250;2023-02-01T08:34:03;2.92;;;1.00;;
10009;SDS011;5044;48.652;9.250;2023-02-01T08:37:16;0.75;;;0.50;;
10009;SDS011;5044;48.652;9.250;2023-02-01T08:40:29;1.63;;;1.08;;
10009;SDS011;5044;48.652;9.250;2023-02-01T08:46:12;2.40;;;0.93;;
10009;SDS011;5044;48.652;9.250;2023-02-01T08:46:42;2.17;;;1.20;;
10009;SDS011;5044;48.652;9.250;2023-02-01T08:49:12;1.58;;;0.68;;
10009;SDS011;5044;48.652;9.250;2023-02-01T08:51:51;3.60;;;1.30;;
10009;SDS011;5044;48.652;9.250;2023-02-01T08:54:26;2.20;;;1.08;;
10009;SDS011;5044;48.652;9.250;2023-02-01T08:56:59;4.10;;;1.92;;
10009;SDS011;5044;48.652;9.250;2023-02-01T08:59:49;2.95;;;1.20;;
10009;SDS011;5044;48.652;9.250;2023-02-01T09:02:24;2.30;;;1.35;;
10009;SDS011;5044;48.652;9.250;2023-02-01T09:08:17;3.92;;;2.17;;
10009;SDS011;5044;48.652;9.250;2023-02-01T09:17:06;1.10;;;0.73;;
10009;SDS011;5044;48.652;9.250;2023-02-01T09:20:21;3.95;;;1.10;;
10009;SDS011;5044;48.652;9.250;2023-02-01T09:23:42;2.85;;;1.38;;
10009;SDS011;5044;48.652;9.250;2023-02-01T09:26:46;1.13;;;0.70;;
10009;SDS011;5044;48.652;9.250;2023-02-01T09:29:14;3.47;;;1.70;;
10009;SDS011;5044;48.652;9.250;2023-02-01T09:31:41;2.28;;;1.20;;
10009;SDS011;5044;48.652;9.250;2023-02-01T09:34:08;2.88;;;1.10;;
10009;SDS011;5044;48.652;9.250;2023-02-01T09:36:35;1.17;;;0.93;;
10009;SDS011;5044;48.652;9.250;2023-02-01T09:39:03;3.70;;;1.38;;
10009;SDS011;5044;48.652;9.250;2023-02-01T09:41:34;2.65;;;1.00;;
10009;SDS011;5044;48.652;9.250;2023-02-01T09:47:25;5.18;;;1.00;;
10009;SDS011;5044;48.652;9.250;2023-02-01T09:50:14;1.02;;;0.88;;
10009;SDS011;5044;48.652;9.250;2023-02-01T09:53:09;4.53;;;1.23;;
10009;SDS011;5044;48.652;9.250;2023-02-01T09:56:15;2.08;;;1.00;;
10009;SDS011;5044;48.652;9.250;2023-02-01T09:59:17;3.85;;;1.23;;
10009;SDS011;5044;48.652;9.250;2023-02-01T10:01:52;2.15;;;0.98;;
10009;SDS011;5044;48.652;9.250;2023-02-01T10:04:19;3.60;;;1.65;;
10009;SDS011;5044;48.652;9.250;2023-02-01T10:07:02;2.83;;;1.30;;
10009;SDS011;5044;48.652;9.250;2023-02-01T10:09:55;4.57;;;1.52;;
10009;SDS011;5044;48.652;9.250;2023-02-01T10:22:42;5.15;;;1.52;;
10009;SDS011;5044;48.652;9.250;2023-02-01T10:25:53;5.50;;;1.67;;
10009;SDS011;5044;48.652;9.250;2023-02-01T10:28:48;6.57;;;1.65;;
10009;SDS011;5044;48.652;9.250;2023-02-01T10:31:57;5.90;;;1.13;;
10009;SDS011;5044;48.652;9.250;2023-02-01T10:35:11;3.60;;;1.27;;
10009;SDS011;5044;48.652;9.250;2023-02-01T10:37:50;4.68;;;1.02;;
10009;SDS011;5044;48.652;9.250;2023-02-01T10:40:41;7.95;;;3.15;;
10009;SDS011;5044;48.652;9.250;2023-02-01T10:43:13;3.22;;;1.60;;
10009;SDS011;5044;48.652;9.250;2023-02-01T10:47:12;1.67;;;0.95;;
10009;SDS011;5044;48.652;9.250;2023-02-01T10:49:16;4.03;;;1.20;;
10009;SDS011;5044;48.652;9.250;2023-02-01T10:55:41;2.65;;;1.30;;
10009;SDS011;5044;48.652;9.250;2023-02-01T10:58:35;3.97;;;1.00;;
10009;SDS011;5044;48.652;9.250;2023-02-01T11:01:33;4.60;;;1.10;;
10009;SDS011;5044;48.652;9.250;2023-02-01T11:04:32;7.22;;;1.77;;
10009;SDS011;5044;48.652;9.250;2023-02-01T11:07:34;2.65;;;1.20;;
10009;SDS011;5044;48.652;9.250;2023-02-01T11:11:02;7.13;;;2.58;;
10009;SDS011;5044;48.652;9.250;2023-02-01T11:14:15;8.10;;;1.73;;
10009;SDS011;5044;48.652;9.250;2023-02-01T11:17:16;7.55;;;1.77;;
10009;SDS011;5044;48.652;9.250;2023-02-01T11:26:30;2.97;;;1.00;;
10009;SDS011;5044;48.652;9.250;2023-02-01T11:29:12;6.82;;;2.00;;
10009;SDS011;5044;48.652;9.250;2023-02-01T11:32:09;6.10;;;1.23;;
10009;SDS011;5044;48.652;9.250;2023-02-01T11:35:07;3.90;;;1.10;;
10009;SDS011;5044;48.652;9.250;2023-02-01T11:38:19;6.03;;;1.33;;
10009;SDS011;5044;48.652;9.250;2023-02-01T11:41:24;9.27;;;1.05;;
10009;SDS011;5044;48.652;9.250;2023-02-01T11:44:30;12.00;;;2.33;;
10009;SDS011;5044;48.652;9.250;2023-02-01T11:47:20;4.20;;;0.95;;
10009;SDS011;5044;48.652;9.250;2023-02-01T11:50:09;8.55;;;1.85;;
10009;SDS011;5044;48.652;9.250;2023-02-01T11:53:35;5.13;;;1.00;;
10009;SDS011;5044;48.652;9.250;2023-02-01T12:06:50;5.90;;;1.35;;
10009;SDS011;5044;48.652;9.250;2023-02-01T12:10:07;6.32;;;1.55;;
10009;SDS011;5044;48.652;9.250;2023-02-01T12:13:15;6.80;;;1.90;;
10009;SDS011;5044;48.652;9.250;2023-02-01T12:16:27;5.95;;;1.02;;
10009;SDS011;5044;48.652;9.250;2023-02-01T12:22:59;5.13;;;1.98;;
10009;SDS011;5044;48.652;9.250;2023-02-01T12:26:18;4.00;;;1.30;;
10009;SDS011;5044;48.652;9.250;2023-02-01T12:29:29;3.83;;;1.58;;
10009;SDS011;5044;48.652;9.250;2023-02-01T12:42:19;7.45;;;1.60;;
10009;SDS011;5044;48.652;9.250;2023-02-01T12:45:11;6.65;;;1.25;;
10009;SDS011;5044;48.652;9.250;2023-02-01T12:48:13;3.70;;;1.38;;
10009;SDS011;5044;48.652;9.250;2023-02-01T12:51:25;2.70;;;0.98;;
10009;SDS011;5044;48.652;9.250;2023-02-01T12:54:02;11.00;;;1.67;;
10009;SDS011;5044;48.652;9.250;2023-02-01T12:56:48;6.90;;;1.23;;
10009;SDS011;5044;48.652;9.250;2023-02-01T12:59:36;6.40;;;1.65;;
10009;SDS011;5044;48.652;9.250;2023-02-01T13:02:14;12.82;;;1.40;;
10009;SDS011;5044;48.652;9.250;2023-02-01T13:05:18;5.05;;;1.80;;
10009;SDS011;5044;48.652;9.250;2023-02-01T13:08:14;9.65;;;1.85;;
10009;SDS011;5044;48.652;9.250;2023-02-01T13:11:15;6.68;;;2.25;;
10009;SDS011;5044;48.652;9.250;2023-02-01T13:14:22;6.35;;;1.33;;
10009;SDS011;5044;48.652;9.250;2023-02-01T13:17:02;7.43;;;1.85;;
10009;SDS011;5044;48.652;9.250;2023-02-01T13:19:47;9.50;;;1.73;;
10009;SDS011;5044;48.652;9.250;2023-02-01T13:22:57;6.38;;;1.92;;
10009;SDS011;5044;48.652;9.250;2023-02-01T13:25:52;11.20;;;2.08;;
10009;SDS011;5044;48.652;9.250;2023-02-01T13:28:40;6.00;;;1.42;;
10009;SDS011;5044;48.652;9.250;2023-02-01T13:31:21;3.40;;;1.05;;
10009;SDS011;5044;48.652;9.250;2023-02-01T13:37:29;6.43;;;1.17;;
10009;SDS011;5044;48.652;9.250;2023-02-01T13:40:40;7.30;;;1.40;;
10009;SDS011;5044;48.652;9.250;2023-02-01T13:43:19;10.30;;;2.42;;
10009;SDS011;5044;48.652;9.250;2023-02-01T13:51:06;5.35;;;1.30;;
10009;SDS011;5044;48.652;9.250;2023-02-01T13:53:38;4.32;;;2.00;;
10009;SDS011;5044;48.652;9.250;2023-02-01T13:56:28;11.15;;;2.10;;
10009;SDS011;5044;48.652;9.250;2023-02-01T14:08:46;7.43;;;2.40;;
10009;SDS011;5044;48.652;9.250;2023-02-01T14:11:41;9.35;;;2.38;;
10009;SDS011;5044;48.652;9.250;2023-02-01T14:23:22;8.73;;;3.08;;
10009;SDS011;5044;48.652;9.250;2023-02-01T14:26:09;6.93;;;2.38;;
10009;SDS011;5044;48.652;9.250;2023-02-01T14:31:15;5.25;;;2.58;;
10009;SDS011;5044;48.652;9.250;2023-02-01T14:33:54;11.80;;;2.78;;
10009;SDS011;5044;48.652;9.250;2023-02-01T14:36:23;12.27;;;3.38;;
10009;SDS011;5044;48.652;9.250;2023-02-01T14:38:50;6.05;;;2.03;;
10009;SDS011;5044;48.652;9.250;2023-02-01T14:41:23;7.55;;;2.53;;
10009;SDS011;5044;48.652;9.250;2023-02-01T14:44:14;9.05;;;2.47;;
10009;SDS011;5044;48.652;9.250;2023-02-01T14:50:13;8.00;;;2.13;;
10009;SDS011;5044;48.652;9.250;2023-02-01T14:52:50;9.80;;;2.80;;
10009;SDS011;5044;48.652;9.250;2023-02-01T14:55:37;11.50;;;2.05;;
10009;SDS011;5044;48.652;9.250;2023-02-01T14:58:12;10.10;;;1.70;;
10009;SDS011;5044;48.652;9.250;2023-02-01T15:00:48;7.72;;;1.73;;
10009;SDS011;5044;48.652;9.250;2023-02-01T15:03:30;5.50;;;1.80;;
10009;SDS011;5044;48.652;9.250;2023-02-01T15:06:29;6.25;;;2.05;;
10009;SDS011;5044;48.652;9.250;2023-02-01T15:09:00;5.72;;;2.10;;
10009;SDS011;5044;48.652;9.250;2023-02-01T15:11:30;6.63;;;1.30;;
10009;SDS011;5044;48.652;9.250;2023-02-01T15:13:57;6.53;;;2.40;;
10009;SDS011;5044;48.652;9.250;2023-02-01T15:16:26;9.73;;;1.90;;
10009;SDS011;5044;48.652;9.250;2023-02-01T15:19:06;8.95;;;2.10;;
10009;SDS011;5044;48.652;9.250;2023-02-01T15:21:41;7.35;;;2.42;;
10009;SDS011;5044;48.652;9.250;2023-02-01T15:24:11;5.90;;;1.77;;
10009;SDS011;5044;48.652;9.250;2023-02-01T15:26:39;4.93;;;1.63;;
10009;SDS011;5044;48.652;9.250;2023-02-01T15:29:08;5.32;;;1.42;;
10009;SDS011;5044;48.652;9.250;2023-02-01T15:31:39;7.15;;;3.08;;
10009;SDS011;5044;48.652;9.250;2023-02-01T15:34:07;6.60;;;1.80;;
10009;SDS011;5044;48.652;9.250;2023-02-01T15:36:35;7.28;;;1.58;;
10009;SDS011;5044;48.652;9.250;2023-02-01T15:39:17;6.38;;;2.78;;
10009;SDS011;5044;48.652;9.250;2023-02-01T15:41:49;9.10;;;2.03;;
10009;SDS011;5044;48.652;9.250;2023-02-01T15:44:22;5.18;;;1.80;;
10009;SDS011;5044;48.652;9.250;2023-02-01T15:46:58;7.82;;;1.40;;
10009;SDS011;5044;48.652;9.250;2023-02-01T15:49:27;9.75;;;1.92;;
10009;SDS011;5044;48.652;9.250;2023-02-01T15:51:57;7.72;;;3.05;;
10009;SDS011;5044;48.652;9.250;2023-02-01T15:54:27;6.60;;;1.40;;
10009;SDS011;5044;48.652;9.250;2023-02-01T15:56:57;5.43;;;1.95;;
10009;SDS011;5044;48.652;9.250;2023-02-01T15:59:29;7.53;;;1.80;;
10009;SDS011;5044;48.652;9.250;2023-02-01T16:01:59;5.57;;;1.60;;
10009;SDS011;5044;48.652;9.250;2023-02-01T16:04:27;5.43;;;1.50;;
10009;SDS011;5044;48.652;9.250;2023-02-01T16:06:56;8.23;;;1.73;;
10009;SDS011;5044;48.652;9.250;2023-02-01T16:12:45;8.73;;;2.15;;
10009;SDS011;5044;48.652;9.250;2023-02-01T16:22:22;10.75;;;2.08;;
10009;SDS011;5044;48.652;9.250;2023-02-01T16:24:49;5.90;;;2.00;;
10009;SDS011;5044;48.652;9.250;2023-02-01T16:27:16;8.27;;;2.20;;
10009;SDS011;5044;48.652;9.250;2023-02-01T16:29:43;13.07;;;3.17;;
10009;SDS011;5044;48.652;9.250;2023-02-01T16:32:11;11.52;;;2.30;;
10009;SDS011;5044;48.652;9.250;2023-02-01T16:34:42;18.70;;;2.60;;
10009;SDS011;5044;48.652;9.250;2023-02-01T16:37:11;5.88;;;2.25;;
10009;SDS011;5044;48.652;9.250;2023-02-01T16:39:39;4.43;;;1.73;;
10009;SDS011;5044;48.652;9.250;2023-02-01T16:42:10;9.30;;;1.73;;
10009;SDS011;5044;48.652;9.250;2023-02-01T16:44:38;14.98;;;3.70;;
10009;SDS011;5044;48.652;9.250;2023-02-01T16:47:08;12.98;;;3.35;;
10009;SDS011;5044;48.652;9.250;2023-02-01T16:49:38;7.88;;;3.53;;
10009;SDS011;5044;48.652;9.250;2023-02-01T16:52:08;13.73;;;4.55;;
10009;SDS011;5044;48.652;9.250;2023-02-01T16:54:40;6.25;;;2.17;;
10009;SDS011;5044;48.652;9.250;2023-02-01T16:57:10;4.07;;;1.83;;
10009;SDS011;5044;48.652;9.250;2023-02-01T16:59:38;7.33;;;2.23;;
10009;SDS011;5044;48.652;9.250;2023-02-01T17:02:06;11.77;;;1.55;;
10009;SDS011;5044;48.652;9.250;2023-02-01T17:04:36;7.55;;;1.88;;
10009;SDS011;5044;48.652;9.250;2023-02-01T17:07:03;9.55;;;1.58;;
10009;SDS011;5044;48.652;9.250;2023-02-01T17:09:34;8.68;;;2.00;;
10009;SDS011;5044;48.652;9.250;2023-02-01T17:12:02;8.93;;;3.15;;
10009;SDS011;5044;48.652;9.250;2023-02-01T17:14:30;9.65;;;3.08;;
10009;SDS011;5044;48.652;9.250;2023-02-01T17:16:58;5.53;;;1.67;;
10009;SDS011;5044;48.652;9.250;2023-02-01T17:22:50;5.55;;;1.83;;
10009;SDS011;5044;48.652;9.250;2023-02-01T17:25:21;6.15;;;1.83;;
10009;SDS011;5044;48.652;9.250;2023-02-01T17:27:50;9.98;;;1.55;;
10009;SDS011;5044;48.652;9.250;2023-02-01T17:30:17;6.13;;;2.08;;
10009;SDS011;5044;48.652;9.250;2023-02-01T17:32:44;6.93;;;1.98;;
10009;SDS011;5044;48.652;9.250;2023-02-01T17:35:15;5.13;;;1.27;;
10009;SDS011;5044;48.652;9.250;2023-02-01T17:37:48;5.80;;;1.30;;
10009;SDS011;5044;48.652;9.250;2023-02-01T17:40:16;13.70;;;2.00;;
10009;SDS011;5044;48.652;9.250;2023-02-01T17:42:44;6.20;;;2.03;;
10009;SDS011;5044;48.652;9.250;2023-02-01T17:45:18;13.45;;;1.83;;
10009;SDS011;5044;48.652;9.250;2023-02-01T17:47:49;6.70;;;1.65;;
10009;SDS011;5044;48.652;9.250;2023-02-01T17:50:16;5.90;;;1.63;;
10009;SDS011;5044;48.652;9.250;2023-02-01T17:52:43;11.20;;;3.20;;
10009;SDS011;5044;48.652;9.250;2023-02-01T17:55:14;6.50;;;1.42;;
10009;SDS011;5044;48.652;9.250;2023-02-01T17:57:44;11.13;;;2.35;;
10009;SDS011;5044;48.652;9.250;2023-02-01T18:00:12;9.50;;;1.73;;
10009;SDS011;5044;48.652;9.250;2023-02-01T18:02:41;12.40;;;2.00;;
10009;SDS011;5044;48.652;9.250;2023-02-01T18:05:12;6.30;;;2.15;;
10009;SDS011;5044;48.652;9.250;2023-02-01T18:07:41;8.15;;;2.05;;
10009;SDS011;5044;48.652;9.250;2023-02-01T18:10:08;3.50;;;1.83;;
10009;SDS011;5044;48.652;9.250;2023-02-01T18:12:36;10.32;;;3.25;;
10009;SDS011;5044;48.652;9.250;2023-02-01T18:15:14;6.82;;;1.70;;
10009;SDS011;5044;48.652;9.250;2023-02-01T18:17:43;7.00;;;2.90;;
10009;SDS011;5044;48.652;9.250;2023-02-01T18:20:18;14.13;;;3.65;;
10009;SDS011;5044;48.652;9.250;2023-02-01T18:22:46;5.07;;;2.42;;